createdAt,value
2024-02-10T00:00:21.858Z,97962.55
2024-02-10T00:02:53.201Z,97967.02
2024-02-10T00:05:24.439Z,97962.44
2024-02-10T00:07:56.844Z,97958.75
2024-02-10T00:10:29.258Z,97959.96
2024-02-10T00:13:01.736Z,97958.24
2024-02-10T00:15:33.049Z,97957.25
2024-02-10T00:18:11.569Z,97958.65
2024-02-10T00:20:43.709Z,97960.23
2024-02-10T00:23:15.500Z,97959.79
2024-02-10T00:25:46.180Z,97964.98
2024-02-10T00:28:18.132Z,97962.52
2024-02-10T00:30:50.108Z,97962.58
2024-02-10T00:33:20.766Z,97963.11
2024-02-10T00:35:51.792Z,97964.02
2024-02-10T00:38:22.864Z,97965.89
2024-02-10T00:40:53.779Z,97967.67
2024-02-10T00:43:24.715Z,97966.09
2024-02-10T00:45:59.135Z,97968.93
2024-02-10T00:48:29.986Z,97970.05
2024-02-10T00:51:02.224Z,97969.45
2024-02-10T00:53:32.903Z,97972.77
2024-02-10T00:56:03.533Z,97974.80
2024-02-10T00:58:34.411Z,97976.14
2024-02-10T01:01:05.428Z,97976.83
2024-02-10T01:03:36.936Z,97978.18
2024-02-10T01:06:10.323Z,97977.82
2024-02-10T01:08:42.094Z,97980.20
2024-02-10T01:11:12.883Z,97978.08
2024-02-10T01:13:45.089Z,97977.29
2024-02-10T01:16:17.225Z,97978.88
2024-02-10T01:18:50.675Z,97979.23
2024-02-10T01:21:22.519Z,97980.39
2024-02-10T01:23:53.414Z,97974.33
2024-02-10T01:26:24.191Z,97976.00
2024-02-10T01:28:54.980Z,97974.98
2024-02-10T01:31:26.747Z,97974.58
2024-02-10T01:33:57.382Z,97974.34
2024-02-10T01:36:30.301Z,97974.02
2024-02-10T01:39:01.542Z,97971.38
2024-02-10T01:41:32.369Z,97964.08
2024-02-10T01:44:03.040Z,97967.58
2024-02-10T01:46:34.379Z,97968.45
2024-02-10T01:49:05.252Z,97967.06
2024-02-10T01:51:36.415Z,97968.91
2024-02-10T01:54:08.876Z,97969.88
2024-02-10T01:56:40.762Z,97968.59
2024-02-10T01:59:11.564Z,97966.84
2024-02-10T02:01:47.124Z,97967.95
2024-02-10T02:04:18.743Z,97964.73
2024-02-10T02:06:50.636Z,97967.59
2024-02-10T02:09:21.321Z,97966.10
2024-02-10T02:11:52.534Z,97965.13
2024-02-10T02:14:23.312Z,97965.59
2024-02-10T02:16:54.370Z,97967.77
2024-02-10T02:19:25.082Z,97963.55
2024-02-10T02:21:55.769Z,97963.65
2024-02-10T02:24:29.671Z,97965.67
2024-02-10T02:27:01.012Z,97963.41
2024-02-10T02:29:32.785Z,97961.67
2024-02-10T02:32:04.278Z,97964.06
2024-02-10T02:34:38.897Z,97966.19
2024-02-10T02:37:09.767Z,97967.60
2024-02-10T02:39:40.515Z,97967.72
2024-02-10T02:42:11.697Z,97969.56
2024-02-10T02:44:43.659Z,97971.04
2024-02-10T02:47:14.471Z,97969.19
2024-02-10T02:49:45.293Z,97969.58
2024-02-10T02:52:16.174Z,97970.23
2024-02-10T02:54:48.997Z,97967.32
2024-02-10T02:57:19.810Z,97960.93
2024-02-10T02:59:50.729Z,97963.17
2024-02-10T03:02:22.505Z,97963.70
2024-02-10T03:04:53.241Z,97964.23
2024-02-10T03:07:24.317Z,97962.98
2024-02-10T03:09:55.076Z,97959.48
2024-02-10T03:12:25.833Z,97965.59
2024-02-10T03:14:56.552Z,97966.48
2024-02-10T03:17:31.857Z,97962.96
2024-02-10T03:20:06.585Z,97960.89
2024-02-10T03:22:37.980Z,97964.45
2024-02-10T03:25:13.687Z,97962.36
2024-02-10T03:27:45.810Z,97961.84
2024-02-10T03:30:17.644Z,97959.17
2024-02-10T03:32:50.159Z,97956.67
2024-02-10T03:35:21.032Z,97951.23
2024-02-10T03:37:51.971Z,97953.06
2024-02-10T03:40:23.213Z,97949.58
2024-02-10T03:42:54.072Z,97948.04
2024-02-10T03:45:27.049Z,97946.64
2024-02-10T03:48:06.508Z,97942.16
2024-02-10T03:50:37.527Z,97937.59
2024-02-10T03:53:08.446Z,97936.61
2024-02-10T03:55:39.637Z,97937.35
2024-02-10T03:58:13.053Z,97935.23
2024-02-10T04:00:45.250Z,97930.06
2024-02-10T04:03:16.008Z,97928.10
2024-02-10T04:05:47.880Z,97920.69
2024-02-10T04:08:20.371Z,97913.14
2024-02-10T04:10:51.108Z,97914.05
2024-02-10T04:13:23.055Z,97909.64
2024-02-10T04:15:54.084Z,97908.95
2024-02-10T04:18:29.020Z,97904.04
2024-02-10T04:21:02.622Z,97900.14
2024-02-10T04:23:33.773Z,97901.95
2024-02-10T04:26:06.512Z,97897.44
2024-02-10T04:28:37.437Z,97897.07
2024-02-10T04:31:08.894Z,97890.87
2024-02-10T04:33:39.829Z,97889.48
2024-02-10T04:36:13.587Z,97890.42
2024-02-10T04:38:44.246Z,97889.83
2024-02-10T04:41:14.868Z,97889.08
2024-02-10T04:43:45.558Z,97889.06
2024-02-10T04:46:18.266Z,97888.98
2024-02-10T04:48:49.390Z,97888.98
2024-02-10T04:51:20.509Z,97886.73
2024-02-10T04:53:51.228Z,97886.50
2024-02-10T04:56:22.465Z,97888.24
2024-02-10T04:58:53.154Z,97891.85
2024-02-10T05:01:33.773Z,97896.82
2024-02-10T05:04:06.411Z,97895.98
2024-02-10T05:06:38.394Z,97897.52
2024-02-10T05:09:09.113Z,97899.43
2024-02-10T05:11:39.764Z,97900.56
2024-02-10T05:14:11.841Z,97900.62
2024-02-10T05:16:42.863Z,97904.02
2024-02-10T05:19:16.052Z,97902.28
2024-02-10T05:21:46.910Z,97898.14
2024-02-10T05:24:17.480Z,97896.73
2024-02-10T05:26:50.864Z,97896.13
2024-02-10T05:29:21.477Z,97894.48
2024-02-10T05:31:52.187Z,97901.81
2024-02-10T05:34:22.941Z,97902.63
2024-02-10T05:36:54.365Z,97901.75
2024-02-10T05:39:25.307Z,97899.59
2024-02-10T05:41:56.123Z,97899.21
2024-02-10T05:44:27.820Z,97899.50
2024-02-10T05:47:02.086Z,97900.37
2024-02-10T05:49:35.116Z,97901.61
2024-02-10T05:52:07.346Z,97905.45
2024-02-10T05:54:41.710Z,97908.94
2024-02-10T05:57:17.895Z,97912.05
2024-02-10T05:59:49.513Z,97913.71
2024-02-10T06:02:22.749Z,97910.73
2024-02-10T06:04:54.243Z,97908.30
2024-02-10T06:07:27.858Z,97903.54
2024-02-10T06:09:58.535Z,97906.82
2024-02-10T06:12:29.613Z,97907.80
2024-02-10T06:15:00.331Z,97900.19
2024-02-10T06:17:36.039Z,97901.25
2024-02-10T06:20:14.002Z,97902.48
2024-02-10T06:22:47.801Z,97906.92
2024-02-10T06:25:24.127Z,97905.80
2024-02-10T06:27:56.044Z,97908.60
2024-02-10T06:30:31.676Z,97916.71
2024-02-10T06:33:05.285Z,97920.55
2024-02-10T06:35:37.967Z,97917.38
2024-02-10T06:38:11.582Z,97918.70
2024-02-10T06:40:44.392Z,97924.22
2024-02-10T06:43:15.331Z,97925.40
2024-02-10T06:45:47.546Z,97925.70
2024-02-10T06:48:20.297Z,97929.77
2024-02-10T06:50:53.075Z,97928.88
2024-02-10T06:53:24.307Z,97932.59
2024-02-10T06:55:56.431Z,97934.74
2024-02-10T06:58:27.342Z,97944.10
2024-02-10T07:00:59.558Z,97949.58
2024-02-10T07:03:33.259Z,97957.17
2024-02-10T07:06:04.519Z,97958.77
2024-02-10T07:08:35.528Z,97967.36
2024-02-10T07:11:06.517Z,97964.39
2024-02-10T07:13:38.229Z,97961.84
2024-02-10T07:16:10.112Z,97963.08
2024-02-10T07:18:42.915Z,97962.60
2024-02-10T07:21:13.705Z,97962.92
2024-02-10T07:23:45.617Z,97963.95
2024-02-10T07:26:18.128Z,97959.80
2024-02-10T07:28:52.937Z,97958.10
2024-02-10T07:31:23.701Z,97963.67
2024-02-10T07:34:00.081Z,97966.30
2024-02-10T07:36:35.499Z,97971.10
2024-02-10T07:39:08.338Z,97977.45
2024-02-10T07:41:40.486Z,97975.83
2024-02-10T07:44:14.466Z,97980.80
2024-02-10T07:46:46.411Z,97978.46
2024-02-10T07:49:20.823Z,97973.86
2024-02-10T07:51:52.036Z,97978.80
2024-02-10T07:54:23.725Z,97979.89
2024-02-10T07:56:55.971Z,97979.43
2024-02-10T07:59:27.852Z,97976.86
2024-02-10T08:01:58.577Z,97977.14
2024-02-10T08:04:29.239Z,97980.66
2024-02-10T08:07:01.367Z,97984.17
2024-02-10T08:09:32.068Z,97983.77
2024-02-10T08:12:04.098Z,97972.41
2024-02-10T08:14:37.640Z,97975.48
2024-02-10T08:17:10.501Z,97971.67
2024-02-10T08:19:43.387Z,97964.78
2024-02-10T08:22:15.217Z,97961.48
2024-02-10T08:24:47.144Z,97962.85
2024-02-10T08:27:18.573Z,97957.52
2024-02-10T08:29:49.474Z,97960.15
2024-02-10T08:32:20.163Z,97960.35
2024-02-10T08:34:52.424Z,97961.56
2024-02-10T08:37:23.602Z,97963.33
2024-02-10T08:39:54.225Z,97962.30
2024-02-10T08:42:26.084Z,97968.31
2024-02-10T08:44:57.126Z,97970.53
2024-02-10T08:47:30.396Z,97968.83
2024-02-10T08:50:02.998Z,97971.58
2024-02-10T08:52:33.944Z,97965.88
2024-02-10T08:55:08.345Z,97966.59
2024-02-10T08:57:39.178Z,97967.25
2024-02-10T09:00:12.826Z,97967.20
2024-02-10T09:02:46.819Z,97964.80
2024-02-10T09:05:17.676Z,97966.19
2024-02-10T09:07:48.456Z,97971.39
2024-02-10T09:10:19.246Z,97969.07
2024-02-10T09:12:50.046Z,97964.41
2024-02-10T09:15:21.992Z,97965.30
2024-02-10T09:17:55.268Z,97968.27
2024-02-10T09:20:32.419Z,97971.61
2024-02-10T09:23:05.002Z,97970.34
2024-02-10T09:25:38.647Z,97973.02
2024-02-10T09:28:09.660Z,97974.09
2024-02-10T09:30:41.755Z,97973.24
2024-02-10T09:33:23.334Z,97975.39
2024-02-10T09:35:56.335Z,97981.80
2024-02-10T09:38:27.977Z,97980.40
2024-02-10T09:40:59.817Z,97978.98
2024-02-10T09:43:34.573Z,97982.42
2024-02-10T09:46:09.191Z,97981.23
2024-02-10T09:48:43.161Z,97987.98
2024-02-10T09:51:14.357Z,97988.66
2024-02-10T09:53:45.694Z,97988.76
2024-02-10T09:56:17.909Z,97988.26
2024-02-10T09:58:50.605Z,97986.91
2024-02-10T10:01:21.567Z,97984.40
2024-02-10T10:03:52.843Z,97986.29
2024-02-10T10:06:25.379Z,97981.02
2024-02-10T10:08:56.402Z,97980.45
2024-02-10T10:11:28.689Z,97981.36
2024-02-10T10:13:59.860Z,97983.45
2024-02-10T10:16:30.751Z,97988.95
2024-02-10T10:19:01.811Z,97988.52
2024-02-10T10:21:33.691Z,97990.30
2024-02-10T10:24:04.825Z,97993.88
2024-02-10T10:26:38.046Z,97992.14
2024-02-10T10:29:10.936Z,97987.98
2024-02-10T10:31:45.600Z,97984.89
2024-02-10T10:34:17.377Z,97983.35
2024-02-10T10:36:50.424Z,97981.50
2024-02-10T10:39:23.882Z,97981.80
2024-02-10T10:41:57.258Z,97979.58
2024-02-10T10:44:28.451Z,97980.71
2024-02-10T10:47:01.822Z,97981.57
2024-02-10T10:49:34.025Z,97973.96
2024-02-10T10:52:06.932Z,97965.79
2024-02-10T10:54:40.299Z,97964.25
2024-02-10T10:57:15.398Z,97960.46
2024-02-10T10:59:52.350Z,97962.73
2024-02-10T11:02:37.158Z,97962.89
2024-02-10T11:05:17.936Z,97955.21
2024-02-10T11:07:51.099Z,97954.52
2024-02-10T11:10:38.878Z,97957.16
2024-02-10T11:13:20.880Z,97954.13
2024-02-10T11:16:01.383Z,97954.66
2024-02-10T11:18:30.506Z,97947.04
2024-02-10T11:21:11.677Z,97942.92
2024-02-10T11:23:42.481Z,97941.70
2024-02-10T11:26:14.954Z,97936.41
2024-02-10T11:28:45.959Z,97933.83
2024-02-10T11:31:18.964Z,97930.94
2024-02-10T11:33:49.819Z,97929.02
2024-02-10T11:36:21.795Z,97933.64
2024-02-10T11:38:52.453Z,97936.34
2024-02-10T11:41:25.346Z,97929.29
2024-02-10T11:43:56.189Z,97925.36
2024-02-10T11:46:30.419Z,97918.86
2024-02-10T11:49:02.176Z,97917.45
2024-02-10T11:51:33.349Z,97916.73
2024-02-10T11:54:04.425Z,97910.23
2024-02-10T11:56:35.422Z,97914.67
2024-02-10T11:59:06.424Z,97911.65
2024-02-10T12:01:37.970Z,97909.20
2024-02-10T12:04:09.399Z,97907.35
2024-02-10T12:06:40.249Z,97911.50
2024-02-10T12:09:11.562Z,97911.20
2024-02-10T12:11:44.190Z,97908.10
2024-02-10T12:14:16.189Z,97905.19
2024-02-10T12:16:47.135Z,97908.85
2024-02-10T12:19:20.931Z,97908.42
2024-02-10T12:21:50.492Z,97915.42
2024-02-10T12:24:23.579Z,97914.47
2024-02-10T12:26:54.305Z,97911.45
2024-02-10T12:29:26.897Z,97901.95
2024-02-10T12:31:57.724Z,97898.44
2024-02-10T12:34:28.660Z,97897.98
2024-02-10T12:37:00.364Z,97896.18
2024-02-10T12:39:31.361Z,97894.58
2024-02-10T12:42:02.565Z,97895.21
2024-02-10T12:44:36.678Z,97891.42
2024-02-10T12:47:11.136Z,97885.27
2024-02-10T12:49:45.235Z,97880.55
2024-02-10T12:52:17.770Z,97879.84
2024-02-10T12:54:49.634Z,97875.98
2024-02-10T12:57:21.503Z,97873.16
2024-02-10T12:59:54.821Z,97869.67
2024-02-10T13:02:28.058Z,97865.73
2024-02-10T13:04:59.875Z,97861.48
2024-02-10T13:07:31.007Z,97855.09
2024-02-10T13:10:02.747Z,97855.95
2024-02-10T13:12:33.985Z,97856.78
2024-02-10T13:15:05.925Z,97852.74
2024-02-10T13:17:37.376Z,97852.35
2024-02-10T13:20:11.607Z,97856.92
2024-02-10T13:22:42.659Z,97858.80
2024-02-10T13:25:13.788Z,97855.94
2024-02-10T13:27:46.040Z,97856.67
2024-02-10T13:30:19.088Z,97849.93
2024-02-10T13:32:50.555Z,97845.91
2024-02-10T13:35:25.167Z,97844.30
2024-02-10T13:38:15.112Z,97843.14
2024-02-10T13:41:03.623Z,97845.28
2024-02-10T13:43:52.418Z,97847.08
2024-02-10T13:46:41.072Z,97851.57
2024-02-10T13:49:29.362Z,97854.69
2024-02-10T13:52:18.022Z,97860.92
2024-02-10T13:55:06.514Z,97856.77
2024-02-10T13:57:55.242Z,97857.71
2024-02-10T14:00:31.778Z,97860.80
2024-02-10T14:03:03.633Z,97859.34
2024-02-10T14:05:56.384Z,97858.41
2024-02-10T14:08:43.094Z,97854.14
2024-02-10T14:11:21.980Z,97854.07
2024-02-10T14:13:54.995Z,97855.03
2024-02-10T14:16:32.063Z,97858.60
2024-02-10T14:19:07.317Z,97852.36
2024-02-10T14:21:39.972Z,97855.88
2024-02-10T14:24:16.926Z,97852.25
2024-02-10T14:27:02.280Z,97850.62
2024-02-10T14:29:35.996Z,97846.95
2024-02-10T14:32:14.057Z,97848.59
2024-02-10T14:35:05.053Z,97844.66
2024-02-10T14:37:48.079Z,97844.86
2024-02-10T14:40:35.283Z,97843.58
2024-02-10T14:43:06.853Z,97845.45
2024-02-10T14:45:39.779Z,97844.85
2024-02-10T14:48:11.032Z,97844.70
2024-02-10T14:50:42.101Z,97844.30
2024-02-10T14:53:13.371Z,97842.30
2024-02-10T14:55:44.357Z,97845.08
2024-02-10T14:58:15.637Z,97846.17
2024-02-10T15:00:46.605Z,97851.61
2024-02-10T15:03:18.145Z,97858.13
2024-02-10T15:05:50.228Z,97856.00
2024-02-10T15:08:22.015Z,97859.57
2024-02-10T15:10:53.292Z,97865.48
2024-02-10T15:13:25.038Z,97864.91
2024-02-10T15:15:55.855Z,97866.16
2024-02-10T15:18:27.690Z,97863.71
2024-02-10T15:20:58.936Z,97863.36
2024-02-10T15:23:29.925Z,97856.05
2024-02-10T15:26:01.767Z,97851.83
2024-02-10T15:28:35.468Z,97857.49
2024-02-10T15:31:07.200Z,97852.27
2024-02-10T15:33:38.240Z,97849.70
2024-02-10T15:36:26.306Z,97848.16
2024-02-10T15:39:02.426Z,97849.02
2024-02-10T15:41:35.008Z,97847.38
2024-02-10T15:44:09.728Z,97845.39
2024-02-10T15:46:42.636Z,97848.41
2024-02-10T15:49:14.275Z,97842.60
2024-02-10T15:51:45.166Z,97853.52
2024-02-10T15:54:15.826Z,97852.23
2024-02-10T15:56:47.568Z,97844.57
2024-02-10T15:59:21.312Z,97843.87
2024-02-10T16:01:57.830Z,97845.31
2024-02-10T16:04:28.789Z,97846.30
2024-02-10T16:06:59.773Z,97850.83
2024-02-10T16:09:30.579Z,97849.48
2024-02-10T16:12:01.681Z,97848.61
2024-02-10T16:14:32.386Z,97846.86
2024-02-10T16:17:04.049Z,97847.31
2024-02-10T16:19:40.964Z,97843.16
2024-02-10T16:22:11.913Z,97838.52
2024-02-10T16:24:44.488Z,97841.52
2024-02-10T16:27:15.224Z,97837.10
2024-02-10T16:29:47.023Z,97837.52
2024-02-10T16:32:17.776Z,97841.18
2024-02-10T16:34:54.053Z,97840.70
2024-02-10T16:37:25.080Z,97843.35
2024-02-10T16:39:56.071Z,97844.05
2024-02-10T16:42:27.005Z,97848.34
2024-02-10T16:44:58.995Z,97851.41
2024-02-10T16:47:29.846Z,97850.73
2024-02-10T16:50:00.762Z,97853.77
2024-02-10T16:52:33.071Z,97851.27
2024-02-10T16:55:04.090Z,97854.55
2024-02-10T16:57:35.119Z,97849.13
2024-02-10T17:00:11.924Z,97850.30
2024-02-10T17:02:42.766Z,97847.60
2024-02-10T17:05:19.286Z,97848.19
2024-02-10T17:07:54.109Z,97849.27
2024-02-10T17:10:24.989Z,97846.30
2024-02-10T17:12:55.694Z,97846.91
2024-02-10T17:15:26.434Z,97847.95
2024-02-10T17:17:57.338Z,97845.05
2024-02-10T17:20:29.854Z,97842.79
2024-02-10T17:23:00.848Z,97846.22
2024-02-10T17:25:33.273Z,97844.08
2024-02-10T17:28:04.439Z,97848.77
2024-02-10T17:30:35.880Z,97851.02
2024-02-10T17:33:07.577Z,97851.44
2024-02-10T17:35:38.983Z,97854.71
2024-02-10T17:38:11.151Z,97855.48
2024-02-10T17:40:42.399Z,97856.26
2024-02-10T17:43:33.212Z,97853.66
2024-02-10T17:46:04.547Z,97849.99
2024-02-10T17:48:37.762Z,97851.95
2024-02-10T17:51:09.147Z,97848.73
2024-02-10T17:53:39.985Z,97848.80
2024-02-10T17:56:13.244Z,97855.03
2024-02-10T17:58:45.144Z,97852.10
2024-02-10T18:01:21.497Z,97853.17
2024-02-10T18:03:52.308Z,97853.98
2024-02-10T18:06:24.264Z,97856.20
2024-02-10T18:08:55.139Z,97857.36
2024-02-10T18:11:25.844Z,97864.94
2024-02-10T18:13:56.654Z,97862.67
2024-02-10T18:16:28.430Z,97865.06
2024-02-10T18:18:59.382Z,97862.55
2024-02-10T18:21:30.135Z,97863.87
2024-02-10T18:24:05.859Z,97864.02
2024-02-10T18:26:38.722Z,97861.03
2024-02-10T18:29:09.642Z,97859.55
2024-02-10T18:31:42.132Z,97860.07
2024-02-10T18:34:13.395Z,97856.45
2024-02-10T18:36:46.662Z,97859.48
2024-02-10T18:39:18.182Z,97858.55
2024-02-10T18:41:52.024Z,97860.98
2024-02-10T18:44:23.418Z,97853.81
2024-02-10T18:46:54.766Z,97853.52
2024-02-10T18:49:30.887Z,97851.34
2024-02-10T18:52:04.678Z,97849.04
2024-02-10T18:54:35.522Z,97850.10
2024-02-10T18:57:11.910Z,97848.26
2024-02-10T18:59:43.027Z,97847.47
2024-02-10T19:02:18.531Z,97841.39
2024-02-10T19:04:51.064Z,97841.55
2024-02-10T19:07:22.792Z,97841.63
2024-02-10T19:09:55.602Z,97838.09
2024-02-10T19:12:26.315Z,97836.36
2024-02-10T19:14:58.569Z,97834.39
2024-02-10T19:17:29.995Z,97830.66
2024-02-10T19:20:00.914Z,97825.07
2024-02-10T19:22:31.976Z,97819.09
2024-02-10T19:25:06.856Z,97821.18
2024-02-10T19:27:39.990Z,97821.27
2024-02-10T19:30:12.463Z,97820.67
2024-02-10T19:32:44.440Z,97818.31
2024-02-10T19:35:20.719Z,97814.05
2024-02-10T19:37:52.592Z,97814.64
2024-02-10T19:40:24.559Z,97817.46
2024-02-10T19:42:56.264Z,97814.57
2024-02-10T19:45:27.653Z,97814.67
2024-02-10T19:47:59.362Z,97816.96
2024-02-10T19:50:30.473Z,97814.38
2024-02-10T19:53:02.788Z,97815.48
2024-02-10T19:55:34.019Z,97814.71
2024-02-10T19:58:04.785Z,97817.13
2024-02-10T20:00:35.609Z,97821.22
2024-02-10T20:03:08.041Z,97818.49
2024-02-10T20:05:39.027Z,97813.80
2024-02-10T20:08:10.468Z,97808.54
2024-02-10T20:10:41.810Z,97810.09
2024-02-10T20:13:12.617Z,97811.02
2024-02-10T20:15:43.351Z,97805.99
2024-02-10T20:18:14.934Z,97809.06
2024-02-10T20:20:45.873Z,97806.39
2024-02-10T20:23:18.175Z,97810.03
2024-02-10T20:25:49.189Z,97806.37
2024-02-10T20:28:19.959Z,97800.14
2024-02-10T20:30:50.768Z,97798.91
2024-02-10T20:33:21.667Z,97798.64
2024-02-10T20:35:54.420Z,97794.30
2024-02-10T20:38:25.236Z,97791.96
2024-02-10T20:40:56.063Z,97792.67
2024-02-10T20:43:26.798Z,97794.73
2024-02-10T20:45:57.474Z,97792.52
2024-02-10T20:48:28.819Z,97791.66
2024-02-10T20:50:59.769Z,97796.77
2024-02-10T20:53:31.066Z,97792.55
2024-02-10T20:56:02.678Z,97786.00
2024-02-10T20:58:34.140Z,97786.17
2024-02-10T21:01:05.282Z,97781.10
2024-02-10T21:03:37.704Z,97779.33
2024-02-10T21:06:09.695Z,97772.06
2024-02-10T21:08:46.254Z,97769.66
2024-02-10T21:11:17.009Z,97771.52
2024-02-10T21:13:47.948Z,97771.13
2024-02-10T21:16:18.736Z,97773.48
2024-02-10T21:18:50.984Z,97770.73
2024-02-10T21:21:21.990Z,97767.80
2024-02-10T21:23:52.655Z,97762.15
2024-02-10T21:26:23.334Z,97757.33
2024-02-10T21:28:56.400Z,97757.59
2024-02-10T21:31:27.326Z,97762.02
2024-02-10T21:33:58.309Z,97761.58
2024-02-10T21:36:29.220Z,97758.92
2024-02-10T21:38:59.927Z,97756.98
2024-02-10T21:41:30.668Z,97756.53
2024-02-10T21:44:02.297Z,97754.92
2024-02-10T21:46:33.621Z,97757.08
2024-02-10T21:49:04.564Z,97754.88
2024-02-10T21:51:37.750Z,97749.11
2024-02-10T21:54:08.923Z,97749.61
2024-02-10T21:56:43.108Z,97746.30
2024-02-10T21:59:17.432Z,97745.70
2024-02-10T22:01:50.676Z,97744.11
2024-02-10T22:04:23.588Z,97742.98
2024-02-10T22:06:55.021Z,97740.36
2024-02-10T22:09:28.444Z,97736.16
2024-02-10T22:12:00.155Z,97734.98
2024-02-10T22:14:31.043Z,97736.02
2024-02-10T22:17:01.719Z,97733.84
2024-02-10T22:19:32.410Z,97734.73
2024-02-10T22:22:03.661Z,97731.80
2024-02-10T22:24:34.431Z,97730.64
2024-02-10T22:27:05.772Z,97730.73
2024-02-10T22:29:36.461Z,97729.73
2024-02-10T22:32:08.121Z,97728.29
2024-02-10T22:34:40.045Z,97730.89
2024-02-10T22:37:13.136Z,97732.27
2024-02-10T22:39:44.338Z,97733.47
2024-02-10T22:42:16.137Z,97733.59
2024-02-10T22:44:49.063Z,97733.27
2024-02-10T22:47:20.122Z,97732.81
2024-02-10T22:49:53.422Z,97728.17
2024-02-10T22:52:24.130Z,97730.04
2024-02-10T22:54:55.607Z,97726.09
2024-02-10T22:57:26.304Z,97720.57
2024-02-10T22:59:57.574Z,97719.95
2024-02-10T23:02:29.868Z,97718.27
2024-02-10T23:05:02.862Z,97722.09
2024-02-10T23:07:35.083Z,97714.11
2024-02-10T23:10:07.103Z,97713.42
2024-02-10T23:12:38.653Z,97715.02
2024-02-10T23:15:14.718Z,97709.66
2024-02-10T23:17:47.322Z,97708.25
2024-02-10T23:20:18.598Z,97709.79
2024-02-10T23:22:49.291Z,97705.59
2024-02-10T23:25:20.376Z,97705.77
2024-02-10T23:27:51.060Z,97706.98
2024-02-10T23:30:21.992Z,97706.41
2024-02-10T23:32:52.865Z,97703.69
2024-02-10T23:35:27.370Z,97702.80
2024-02-10T23:37:58.520Z,97704.29
2024-02-10T23:40:29.589Z,97700.16
2024-02-10T23:43:03.340Z,97694.04
2024-02-10T23:45:34.426Z,97685.90
2024-02-10T23:48:05.559Z,97685.46
2024-02-10T23:50:36.902Z,97680.78
2024-02-10T23:53:11.544Z,97681.20
2024-02-10T23:55:43.930Z,97678.41
2024-02-10T23:58:14.648Z,97668.14
